sensor_id;sensor_type;location;lat;lon;timestamp;P1;durP1;ratioP1;P2;durP2;ratioP2
3415;SDS011;1721;51.238;9.562;2023-04-15T00:02:22;10.20;;;2.87;;
3415;SDS011;1721;51.238;9.562;2023-04-15T00:04:48;7.27;;;3.43;;
3415;SDS011;1721;51.238;9.562;2023-04-15T00:07:13;7.93;;;3.10;;
3415;SDS011;1721;51.238;9.562;2023-04-15T00:09:40;6.07;;;3.53;;
3415;SDS011;1721;51.238;9.562;2023-04-15T00:12:06;8.93;;;3.40;;
3415;SDS011;1721;51.238;9.562;2023-04-15T00:14:33;6.85;;;3.78;;
3415;SDS011;1721;51.238;9.562;2023-04-15T00:17:00;6.82;;;3.40;;
3415;SDS011;1721;51.238;9.562;2023-04-15T00:19:26;16.40;;;3.70;;
3415;SDS011;1721;51.238;9.562;2023-04-15T00:21:51;9.47;;;4.37;;
3415;SDS011;1721;51.238;9.562;2023-04-15T00:24:17;11.80;;;3.80;;
3415;SDS011;1721;51.238;9.562;2023-04-15T00:26:42;7.87;;;3.50;;
3415;SDS011;1721;51.238;9.562;2023-04-15T00:29:09;11.60;;;2.67;;
3415;SDS011;1721;51.238;9.562;2023-04-15T00:31:34;8.65;;;3.10;;
3415;SDS011;1721;51.238;9.562;2023-04-15T00:34:00;5.63;;;2.47;;
3415;SDS011;1721;51.238;9.562;2023-04-15T00:36:26;5.50;;;2.70;;
3415;SDS011;1721;51.238;9.562;2023-04-15T00:38:51;6.27;;;2.97;;
3415;SDS011;1721;51.238;9.562;2023-04-15T00:41:18;6.60;;;3.20;;
3415;SDS011;1721;51.238;9.562;2023-04-15T00:43:43;6.83;;;3.27;;
3415;SDS011;1721;51.238;9.562;2023-04-15T00:46:09;7.20;;;3.93;;
3415;SDS011;1721;51.238;9.562;2023-04-15T00:48:38;6.68;;;3.22;;
3415;SDS011;1721;51.238;9.562;2023-04-15T00:51:05;5.10;;;2.88;;
3415;SDS011;1721;51.238;9.562;2023-04-15T00:53:31;5.55;;;2.85;;
3415;SDS011;1721;51.238;9.562;2023-04-15T00:55:57;7.50;;;3.40;;
3415;SDS011;1721;51.238;9.562;2023-04-15T00:58:22;6.57;;;3.47;;
3415;SDS011;1721;51.238;9.562;2023-04-15T01:00:48;8.25;;;3.53;;
3415;SDS011;1721;51.238;9.562;2023-04-15T01:03:18;7.60;;;2.70;;
3415;SDS011;1721;51.238;9.562;2023-04-15T01:05:44;10.45;;;2.47;;
3415;SDS011;1721;51.238;9.562;2023-04-15T01:08:10;6.07;;;2.70;;
3415;SDS011;1721;51.238;9.562;2023-04-15T01:10:36;6.57;;;3.17;;
3415;SDS011;1721;51.238;9.562;2023-04-15T01:13:02;9.03;;;3.97;;
3415;SDS011;1721;51.238;9.562;2023-04-15T01:15:28;8.30;;;3.85;;
3415;SDS011;1721;51.238;9.562;2023-04-15T01:17:54;7.78;;;3.60;;
3415;SDS011;1721;51.238;9.562;2023-04-15T01:20:24;9.20;;;3.17;;
3415;SDS011;1721;51.238;9.562;2023-04-15T01:22:51;9.27;;;3.50;;
3415;SDS011;1721;51.238;9.562;2023-04-15T01:25:19;7.82;;;4.10;;
3415;SDS011;1721;51.238;9.562;2023-04-15T01:27:58;6.88;;;3.50;;
3415;SDS011;1721;51.238;9.562;2023-04-15T01:30:24;6.97;;;3.73;;
3415;SDS011;1721;51.238;9.562;2023-04-15T01:32:53;14.60;;;4.43;;
3415;SDS011;1721;51.238;9.562;2023-04-15T01:35:20;9.50;;;4.47;;
3415;SDS011;1721;51.238;9.562;2023-04-15T01:37:46;10.30;;;4.22;;
3415;SDS011;1721;51.238;9.562;2023-04-15T01:40:12;9.23;;;4.60;;
3415;SDS011;1721;51.238;9.562;2023-04-15T01:42:38;6.37;;;3.50;;
3415;SDS011;1721;51.238;9.562;2023-04-15T01:45:03;11.10;;;5.10;;
3415;SDS011;1721;51.238;9.562;2023-04-15T01:47:30;11.95;;;4.75;;
3415;SDS011;1721;51.238;9.562;2023-04-15T01:49:56;11.07;;;4.50;;
3415;SDS011;1721;51.238;9.562;2023-04-15T01:52:21;9.90;;;4.00;;
3415;SDS011;1721;51.238;9.562;2023-04-15T01:54:47;9.63;;;4.40;;
3415;SDS011;1721;51.238;9.562;2023-04-15T01:57:13;9.83;;;3.83;;
3415;SDS011;1721;51.238;9.562;2023-04-15T01:59:38;6.20;;;3.37;;
3415;SDS011;1721;51.238;9.562;2023-04-15T02:02:05;13.40;;;4.00;;
3415;SDS011;1721;51.238;9.562;2023-04-15T02:04:30;7.40;;;3.70;;
3415;SDS011;1721;51.238;9.562;2023-04-15T02:06:56;7.97;;;4.25;;
3415;SDS011;1721;51.238;9.562;2023-04-15T02:09:22;9.03;;;4.23;;
3415;SDS011;1721;51.238;9.562;2023-04-15T02:11:47;8.20;;;4.80;;
3415;SDS011;1721;51.238;9.562;2023-04-15T02:14:15;13.38;;;4.18;;
3415;SDS011;1721;51.238;9.562;2023-04-15T02:16:41;8.83;;;4.20;;
3415;SDS011;1721;51.238;9.562;2023-04-15T02:19:06;11.30;;;5.10;;
3415;SDS011;1721;51.238;9.562;2023-04-15T02:21:32;5.93;;;3.33;;
3415;SDS011;1721;51.238;9.562;2023-04-15T02:23:59;11.45;;;4.20;;
3415;SDS011;1721;51.238;9.562;2023-04-15T02:26:26;7.85;;;3.58;;
3415;SDS011;1721;51.238;9.562;2023-04-15T02:28:52;8.30;;;4.03;;
3415;SDS011;1721;51.238;9.562;2023-04-15T02:31:18;9.95;;;3.60;;
3415;SDS011;1721;51.238;9.562;2023-04-15T02:33:45;10.15;;;4.70;;
3415;SDS011;1721;51.238;9.562;2023-04-15T02:36:10;9.47;;;4.57;;
3415;SDS011;1721;51.238;9.562;2023-04-15T02:38:36;11.63;;;4.40;;
3415;SDS011;1721;51.238;9.562;2023-04-15T02:41:04;8.15;;;4.18;;
3415;SDS011;1721;51.238;9.562;2023-04-15T02:43:30;10.43;;;4.50;;
3415;SDS011;1721;51.238;9.562;2023-04-15T02:45:55;10.70;;;4.40;;
3415;SDS011;1721;51.238;9.562;2023-04-15T02:48:21;7.30;;;3.20;;
3415;SDS011;1721;51.238;9.562;2023-04-15T02:50:46;7.00;;;3.23;;
3415;SDS011;1721;51.238;9.562;2023-04-15T02:53:12;10.10;;;4.13;;
3415;SDS011;1721;51.238;9.562;2023-04-15T02:55:38;8.30;;;3.88;;
3415;SDS011;1721;51.238;9.562;2023-04-15T02:58:04;8.13;;;4.45;;
3415;SDS011;1721;51.238;9.562;2023-04-15T03:00:30;6.45;;;3.17;;
3415;SDS011;1721;51.238;9.562;2023-04-15T03:02:57;6.83;;;3.80;;
3415;SDS011;1721;51.238;9.562;2023-04-15T03:05:26;8.13;;;4.30;;
3415;SDS011;1721;51.238;9.562;2023-04-15T03:07:52;11.30;;;4.30;;
3415;SDS011;1721;51.238;9.562;2023-04-15T03:10:17;9.10;;;4.90;;
3415;SDS011;1721;51.238;9.562;2023-04-15T03:12:43;10.35;;;4.75;;
3415;SDS011;1721;51.238;9.562;2023-04-15T03:15:09;13.47;;;5.17;;
3415;SDS011;1721;51.238;9.562;2023-04-15T03:17:35;11.47;;;5.40;;
3415;SDS011;1721;51.238;9.562;2023-04-15T03:20:01;11.67;;;5.40;;
3415;SDS011;1721;51.238;9.562;2023-04-15T03:22:27;11.60;;;5.45;;
3415;SDS011;1721;51.238;9.562;2023-04-15T03:24:53;9.57;;;4.90;;
3415;SDS011;1721;51.238;9.562;2023-04-15T03:27:18;10.27;;;4.97;;
3415;SDS011;1721;51.238;9.562;2023-04-15T03:29:44;8.67;;;4.40;;
3415;SDS011;1721;51.238;9.562;2023-04-15T03:32:10;9.77;;;4.87;;
3415;SDS011;1721;51.238;9.562;2023-04-15T03:34:36;10.95;;;4.90;;
3415;SDS011;1721;51.238;9.562;2023-04-15T03:37:02;13.43;;;5.23;;
3415;SDS011;1721;51.238;9.562;2023-04-15T03:39:27;9.70;;;4.67;;
3415;SDS011;1721;51.238;9.562;2023-04-15T03:41:53;13.27;;;5.50;;
3415;SDS011;1721;51.238;9.562;2023-04-15T03:44:19;10.20;;;4.77;;
3415;SDS011;1721;51.238;9.562;2023-04-15T03:46:44;10.00;;;4.70;;
3415;SDS011;1721;51.238;9.562;2023-04-15T03:49:10;11.50;;;5.70;;
3415;SDS011;1721;51.238;9.562;2023-04-15T03:51:36;14.47;;;6.60;;
3415;SDS011;1721;51.238;9.562;2023-04-15T03:54:01;11.60;;;6.37;;
3415;SDS011;1721;51.238;9.562;2023-04-15T03:56:27;14.43;;;6.30;;
3415;SDS011;1721;51.238;9.562;2023-04-15T03:58:52;12.70;;;6.27;;
3415;SDS011;1721;51.238;9.562;2023-04-15T04:01:18;10.00;;;5.40;;
3415;SDS011;1721;51.238;9.562;2023-04-15T04:03:43;12.93;;;5.70;;
3415;SDS011;1721;51.238;9.562;2023-04-15T04:06:09;14.17;;;6.70;;
3415;SDS011;1721;51.238;9.562;2023-04-15T04:08:36;13.02;;;6.00;;
3415;SDS011;1721;51.238;9.562;2023-04-15T04:11:02;12.33;;;5.60;;
3415;SDS011;1721;51.238;9.562;2023-04-15T04:13:28;10.73;;;5.90;;
3415;SDS011;1721;51.238;9.562;2023-04-15T04:15:53;9.23;;;4.87;;
3415;SDS011;1721;51.238;9.562;2023-04-15T04:18:19;10.80;;;5.47;;
3415;SDS011;1721;51.238;9.562;2023-04-15T04:20:45;15.47;;;6.53;;
3415;SDS011;1721;51.238;9.562;2023-04-15T04:23:10;12.90;;;6.33;;
3415;SDS011;1721;51.238;9.562;2023-04-15T04:25:36;14.00;;;6.10;;
3415;SDS011;1721;51.238;9.562;2023-04-15T04:28:02;14.40;;;7.37;;
3415;SDS011;1721;51.238;9.562;2023-04-15T04:30:27;12.73;;;7.17;;
3415;SDS011;1721;51.238;9.562;2023-04-15T04:32:53;16.05;;;7.22;;
3415;SDS011;1721;51.238;9.562;2023-04-15T04:35:19;15.73;;;7.03;;
3415;SDS011;1721;51.238;9.562;2023-04-15T04:37:45;12.55;;;6.72;;
3415;SDS011;1721;51.238;9.562;2023-04-15T04:40:11;15.57;;;7.10;;
3415;SDS011;1721;51.238;9.562;2023-04-15T04:42:37;14.13;;;7.60;;
3415;SDS011;1721;51.238;9.562;2023-04-15T04:45:02;13.37;;;7.00;;
3415;SDS011;1721;51.238;9.562;2023-04-15T04:47:28;13.77;;;6.80;;
3415;SDS011;1721;51.238;9.562;2023-04-15T04:49:54;13.47;;;7.20;;
3415;SDS011;1721;51.238;9.562;2023-04-15T04:52:19;13.13;;;6.67;;
3415;SDS011;1721;51.238;9.562;2023-04-15T04:54:45;17.37;;;8.23;;
3415;SDS011;1721;51.238;9.562;2023-04-15T04:57:11;11.53;;;6.43;;
3415;SDS011;1721;51.238;9.562;2023-04-15T04:59:37;15.32;;;7.60;;
3415;SDS011;1721;51.238;9.562;2023-04-15T05:02:03;14.40;;;6.43;;
3415;SDS011;1721;51.238;9.562;2023-04-15T05:04:29;16.40;;;8.17;;
3415;SDS011;1721;51.238;9.562;2023-04-15T05:06:56;14.43;;;8.43;;
3415;SDS011;1721;51.238;9.562;2023-04-15T05:09:22;16.08;;;7.32;;
3415;SDS011;1721;51.238;9.562;2023-04-15T05:11:47;15.97;;;7.23;;
3415;SDS011;1721;51.238;9.562;2023-04-15T05:14:13;15.47;;;8.50;;
3415;SDS011;1721;51.238;9.562;2023-04-15T05:16:39;15.27;;;7.60;;
3415;SDS011;1721;51.238;9.562;2023-04-15T05:19:04;14.60;;;8.20;;
3415;SDS011;1721;51.238;9.562;2023-04-15T05:21:30;15.50;;;8.77;;
3415;SDS011;1721;51.238;9.562;2023-04-15T05:23:55;14.93;;;7.50;;
3415;SDS011;1721;51.238;9.562;2023-04-15T05:26:21;16.63;;;8.83;;
3415;SDS011;1721;51.238;9.562;2023-04-15T05:28:48;17.52;;;8.80;;
3415;SDS011;1721;51.238;9.562;2023-04-15T05:31:14;16.87;;;8.30;;
3415;SDS011;1721;51.238;9.562;2023-04-15T05:33:40;21.53;;;9.70;;
3415;SDS011;1721;51.238;9.562;2023-04-15T05:36:05;19.63;;;8.10;;
3415;SDS011;1721;51.238;9.562;2023-04-15T05:38:31;17.47;;;8.87;;
3415;SDS011;1721;51.238;9.562;2023-04-15T05:40:57;21.47;;;10.63;;
3415;SDS011;1721;51.238;9.562;2023-04-15T05:43:22;18.07;;;9.23;;
3415;SDS011;1721;51.238;9.562;2023-04-15T05:45:48;20.83;;;10.10;;
3415;SDS011;1721;51.238;9.562;2023-04-15T05:48:13;16.73;;;9.13;;
3415;SDS011;1721;51.238;9.562;2023-04-15T05:50:40;18.70;;;9.83;;
3415;SDS011;1721;51.238;9.562;2023-04-15T05:53:06;16.67;;;9.40;;
3415;SDS011;1721;51.238;9.562;2023-04-15T05:55:32;19.08;;;9.05;;
3415;SDS011;1721;51.238;9.562;2023-04-15T05:57:58;18.53;;;8.87;;
3415;SDS011;1721;51.238;9.562;2023-04-15T06:00:23;22.00;;;8.20;;
3415;SDS011;1721;51.238;9.562;2023-04-15T06:02:49;24.53;;;9.60;;
3415;SDS011;1721;51.238;9.562;2023-04-15T06:05:15;21.15;;;9.30;;
3415;SDS011;1721;51.238;9.562;2023-04-15T06:07:40;20.67;;;9.30;;
3415;SDS011;1721;51.238;9.562;2023-04-15T06:10:07;19.23;;;9.32;;
3415;SDS011;1721;51.238;9.562;2023-04-15T06:12:33;20.90;;;10.10;;
3415;SDS011;1721;51.238;9.562;2023-04-15T06:14:59;18.07;;;8.70;;
3415;SDS011;1721;51.238;9.562;2023-04-15T06:17:25;18.57;;;9.00;;
3415;SDS011;1721;51.238;9.562;2023-04-15T06:19:50;20.53;;;9.40;;
3415;SDS011;1721;51.238;9.562;2023-04-15T06:22:20;19.50;;;8.65;;
3415;SDS011;1721;51.238;9.562;2023-04-15T06:24:48;19.27;;;9.15;;
3415;SDS011;1721;51.238;9.562;2023-04-15T06:27:17;21.42;;;10.40;;
3415;SDS011;1721;51.238;9.562;2023-04-15T06:29:43;22.13;;;10.03;;
3415;SDS011;1721;51.238;9.562;2023-04-15T06:32:08;22.47;;;10.20;;
3415;SDS011;1721;51.238;9.562;2023-04-15T06:34:34;20.65;;;10.27;;
3415;SDS011;1721;51.238;9.562;2023-04-15T06:37:00;21.87;;;10.37;;
3415;SDS011;1721;51.238;9.562;2023-04-15T06:39:25;20.73;;;9.20;;
3415;SDS011;1721;51.238;9.562;2023-04-15T06:41:51;19.77;;;9.97;;
3415;SDS011;1721;51.238;9.562;2023-04-15T06:44:17;19.50;;;10.10;;
3415;SDS011;1721;51.238;9.562;2023-04-15T06:46:42;22.00;;;9.47;;
3415;SDS011;1721;51.238;9.562;2023-04-15T06:49:08;19.17;;;9.57;;
3415;SDS011;1721;51.238;9.562;2023-04-15T06:51:35;18.33;;;9.27;;
3415;SDS011;1721;51.238;9.562;2023-04-15T06:54:01;24.30;;;9.40;;
3415;SDS011;1721;51.238;9.562;2023-04-15T06:56:29;21.52;;;9.82;;
3415;SDS011;1721;51.238;9.562;2023-04-15T06:58:58;18.48;;;7.97;;
3415;SDS011;1721;51.238;9.562;2023-04-15T07:01:24;19.10;;;8.80;;
3415;SDS011;1721;51.238;9.562;2023-04-15T07:03:50;17.13;;;8.95;;
3415;SDS011;1721;51.238;9.562;2023-04-15T07:06:16;24.67;;;9.73;;
3415;SDS011;1721;51.238;9.562;2023-04-15T07:08:41;23.23;;;9.63;;
3415;SDS011;1721;51.238;9.562;2023-04-15T07:11:07;20.47;;;9.30;;
3415;SDS011;1721;51.238;9.562;2023-04-15T07:13:33;19.80;;;8.70;;
3415;SDS011;1721;51.238;9.562;2023-04-15T07:15:58;18.33;;;9.30;;
3415;SDS011;1721;51.238;9.562;2023-04-15T07:18:24;17.13;;;8.67;;
3415;SDS011;1721;51.238;9.562;2023-04-15T07:20:50;19.50;;;9.57;;
3415;SDS011;1721;51.238;9.562;2023-04-15T07:23:15;15.67;;;7.70;;
3415;SDS011;1721;51.238;9.562;2023-04-15T07:25:41;18.53;;;8.63;;
3415;SDS011;1721;51.238;9.562;2023-04-15T07:28:06;15.80;;;8.60;;
3415;SDS011;1721;51.238;9.562;2023-04-15T07:30:32;18.33;;;9.13;;
3415;SDS011;1721;51.238;9.562;2023-04-15T07:32:58;18.23;;;9.07;;
3415;SDS011;1721;51.238;9.562;2023-04-15T07:35:24;19.73;;;9.03;;
3415;SDS011;1721;51.238;9.562;2023-04-15T07:37:50;16.55;;;8.40;;
3415;SDS011;1721;51.238;9.562;2023-04-15T07:40:16;22.47;;;9.40;;
3415;SDS011;1721;51.238;9.562;2023-04-15T07:42:42;19.23;;;9.88;;
3415;SDS011;1721;51.238;9.562;2023-04-15T07:45:08;18.52;;;7.53;;
3415;SDS011;1721;51.238;9.562;2023-04-15T07:47:34;17.73;;;8.47;;
3415;SDS011;1721;51.238;9.562;2023-04-15T07:50:00;22.87;;;9.53;;
3415;SDS011;1721;51.238;9.562;2023-04-15T07:52:26;20.67;;;10.40;;
3415;SDS011;1721;51.238;9.562;2023-04-15T07:54:52;19.97;;;9.50;;
3415;SDS011;1721;51.238;9.562;2023-04-15T07:57:17;20.27;;;9.83;;
3415;SDS011;1721;51.238;9.562;2023-04-15T07:59:43;19.10;;;9.20;;
3415;SDS011;1721;51.238;9.562;2023-04-15T08:02:10;19.30;;;9.53;;
3415;SDS011;1721;51.238;9.562;2023-04-15T08:04:35;22.20;;;9.23;;
3415;SDS011;1721;51.238;9.562;2023-04-15T08:07:01;18.40;;;9.27;;
3415;SDS011;1721;51.238;9.562;2023-04-15T08:09:28;20.20;;;8.65;;
3415;SDS011;1721;51.238;9.562;2023-04-15T08:11:53;20.00;;;9.67;;
3415;SDS011;1721;51.238;9.562;2023-04-15T08:14:19;23.60;;;10.83;;
3415;SDS011;1721;51.238;9.562;2023-04-15T08:16:44;19.30;;;9.50;;
3415;SDS011;1721;51.238;9.562;2023-04-15T08:19:10;18.53;;;9.37;;
3415;SDS011;1721;51.238;9.562;2023-04-15T08:21:35;18.27;;;8.67;;
3415;SDS011;1721;51.238;9.562;2023-04-15T08:24:01;17.43;;;8.43;;
3415;SDS011;1721;51.238;9.562;2023-04-15T08:26:27;16.13;;;8.97;;
3415;SDS011;1721;51.238;9.562;2023-04-15T08:28:53;17.83;;;8.13;;
3415;SDS011;1721;51.238;9.562;2023-04-15T08:31:18;16.33;;;7.70;;
3415;SDS011;1721;51.238;9.562;2023-04-15T08:33:45;20.02;;;9.45;;
3415;SDS011;1721;51.238;9.562;2023-04-15T08:36:10;26.37;;;9.53;;
3415;SDS011;1721;51.238;9.562;2023-04-15T08:38:37;23.15;;;9.25;;
3415;SDS011;1721;51.238;9.562;2023-04-15T08:41:06;21.70;;;10.07;;
3415;SDS011;1721;51.238;9.562;2023-04-15T08:43:38;18.80;;;8.85;;
3415;SDS011;1721;51.238;9.562;2023-04-15T08:46:10;24.88;;;9.15;;
3415;SDS011;1721;51.238;9.562;2023-04-15T08:48:37;22.92;;;8.85;;
3415;SDS011;1721;51.238;9.562;2023-04-15T08:51:04;17.95;;;8.02;;
3415;SDS011;1721;51.238;9.562;2023-04-15T08:53:30;16.02;;;7.88;;
3415;SDS011;1721;51.238;9.562;2023-04-15T08:55:56;16.10;;;7.97;;
3415;SDS011;1721;51.238;9.562;2023-04-15T08:58:23;17.23;;;7.93;;
3415;SDS011;1721;51.238;9.562;2023-04-15T09:00:50;19.85;;;7.28;;
3415;SDS011;1721;51.238;9.562;2023-04-15T09:03:15;16.43;;;7.77;;
3415;SDS011;1721;51.238;9.562;2023-04-15T09:05:41;14.85;;;6.90;;
3415;SDS011;1721;51.238;9.562;2023-04-15T09:08:07;14.50;;;7.15;;
3415;SDS011;1721;51.238;9.562;2023-04-15T09:10:33;19.83;;;8.47;;
3415;SDS011;1721;51.238;9.562;2023-04-15T09:12:59;13.57;;;7.05;;
3415;SDS011;1721;51.238;9.562;2023-04-15T09:15:26;17.10;;;7.72;;
3415;SDS011;1721;51.238;9.562;2023-04-15T09:17:53;14.38;;;7.18;;
3415;SDS011;1721;51.238;9.562;2023-04-15T09:20:19;11.05;;;5.80;;
3415;SDS011;1721;51.238;9.562;2023-04-15T09:22:46;12.63;;;5.87;;
3415;SDS011;1721;51.238;9.562;2023-04-15T09:27:47;15.27;;;6.47;;
3415;SDS011;1721;51.238;9.562;2023-04-15T09:30:14;10.32;;;5.30;;
3415;SDS011;1721;51.238;9.562;2023-04-15T09:32:50;13.35;;;5.70;;
3415;SDS011;1721;51.238;9.562;2023-04-15T09:35:19;13.45;;;6.70;;
3415;SDS011;1721;51.238;9.562;2023-04-15T09:37:46;13.05;;;5.60;;
3415;SDS011;1721;51.238;9.562;2023-04-15T09:40:12;13.40;;;6.10;;
3415;SDS011;1721;51.238;9.562;2023-04-15T09:42:56;15.70;;;5.60;;
3415;SDS011;1721;51.238;9.562;2023-04-15T09:45:22;12.60;;;4.97;;
3415;SDS011;1721;51.238;9.562;2023-04-15T09:47:48;11.18;;;5.13;;
3415;SDS011;1721;51.238;9.562;2023-04-15T09:50:17;11.98;;;4.97;;
3415;SDS011;1721;51.238;9.562;2023-04-15T09:52:43;11.90;;;5.40;;
3415;SDS011;1721;51.238;9.562;2023-04-15T09:55:10;1.70;;;0.90;;
3415;SDS011;1721;51.238;9.562;2023-04-15T09:57:36;2.83;;;0.90;;
3415;SDS011;1721;51.238;9.562;2023-04-15T10:00:03;1.38;;;0.40;;
3415;SDS011;1721;51.238;9.562;2023-04-15T10:02:30;1.30;;;0.40;;
3415;SDS011;1721;51.238;9.562;2023-04-15T10:04:56;1.37;;;0.40;;
3415;SDS011;1721;51.238;9.562;2023-04-15T10:07:22;1.90;;;0.83;;
3415;SDS011;1721;51.238;9.562;2023-04-15T10:09:48;1.73;;;0.80;;
3415;SDS011;1721;51.238;9.562;2023-04-15T10:12:17;1.40;;;0.40;;
3415;SDS011;1721;51.238;9.562;2023-04-15T10:14:43;1.60;;;0.50;;
3415;SDS011;1721;51.238;9.562;2023-04-15T10:17:12;1.50;;;0.50;;
3415;SDS011;1721;51.238;9.562;2023-04-15T10:19:41;1.83;;;0.70;;
3415;SDS011;1721;51.238;9.562;2023-04-15T10:22:07;1.40;;;0.50;;
3415;SDS011;1721;51.238;9.562;2023-04-15T10:24:32;1.30;;;0.40;;
3415;SDS011;1721;51.238;9.562;2023-04-15T10:26:58;1.40;;;0.50;;
3415;SDS011;1721;51.238;9.562;2023-04-15T10:29:25;1.33;;;0.40;;
3415;SDS011;1721;51.238;9.562;2023-04-15T10:31:52;1.30;;;0.40;;
3415;SDS011;1721;51.238;9.562;2023-04-15T10:34:20;1.40;;;0.50;;
3415;SDS011;1721;51.238;9.562;2023-04-15T10:36:47;1.85;;;0.50;;
3415;SDS011;1721;51.238;9.562;2023-04-15T10:42:17;1.30;;;0.50;;
3415;SDS011;1721;51.238;9.562;2023-04-15T10:47:10;1.40;;;0.50;;
3415;SDS011;1721;51.238;9.562;2023-04-15T10:49:47;1.35;;;0.40;;
3415;SDS011;1721;51.238;9.562;2023-04-15T10:52:20;1.40;;;0.50;;
3415;SDS011;1721;51.238;9.562;2023-04-15T10:55:01;1.42;;;0.55;;
3415;SDS011;1721;51.238;9.562;2023-04-15T10:57:38;1.33;;;0.40;;
3415;SDS011;1721;51.238;9.562;2023-04-15T11:02:46;1.35;;;0.40;;
3415;SDS011;1721;51.238;9.562;2023-04-15T11:05:21;1.40;;;0.50;;
3415;SDS011;1721;51.238;9.562;2023-04-15T11:12:56;1.70;;;0.90;;
3415;SDS011;1721;51.238;9.562;2023-04-15T11:15:43;1.50;;;0.60;;
3415;SDS011;1721;51.238;9.562;2023-04-15T11:20:48;1.38;;;0.40;;
3415;SDS011;1721;51.238;9.562;2023-04-15T11:23:26;1.70;;;0.90;;
3415;SDS011;1721;51.238;9.562;2023-04-15T11:25:57;1.38;;;0.40;;
3415;SDS011;1721;51.238;9.562;2023-04-15T11:28:30;1.33;;;0.40;;
3415;SDS011;1721;51.238;9.562;2023-04-15T11:30:56;2.00;;;0.68;;
3415;SDS011;1721;51.238;9.562;2023-04-15T11:33:23;1.40;;;0.50;;
3415;SDS011;1721;51.238;9.562;2023-04-15T11:35:50;1.35;;;0.40;;
3415;SDS011;1721;51.238;9.562;2023-04-15T11:38:18;1.30;;;0.40;;
3415;SDS011;1721;51.238;9.562;2023-04-15T11:40:44;1.30;;;0.40;;
3415;SDS011;1721;51.238;9.562;2023-04-15T11:43:17;1.35;;;0.50;;
3415;SDS011;1721;51.238;9.562;2023-04-15T11:45:58;1.30;;;0.40;;
3415;SDS011;1721;51.238;9.562;2023-04-15T11:48:26;4.28;;;1.13;;
3415;SDS011;1721;51.238;9.562;2023-04-15T11:51:02;1.38;;;0.47;;
3415;SDS011;1721;51.238;9.562;2023-04-15T11:56:09;1.30;;;0.40;;
3415;SDS011;1721;51.238;9.562;2023-04-15T11:58:40;1.30;;;0.40;;
3415;SDS011;1721;51.238;9.562;2023-04-15T12:01:07;1.40;;;0.40;;
3415;SDS011;1721;51.238;9.562;2023-04-15T12:03:37;1.50;;;0.50;;
3415;SDS011;1721;51.238;9.562;2023-04-15T12:06:21;1.40;;;0.50;;
3415;SDS011;1721;51.238;9.562;2023-04-15T12:11:20;1.40;;;0.40;;
3415;SDS011;1721;51.238;9.562;2023-04-15T12:13:56;1.40;;;0.40;;
3415;SDS011;1721;51.238;9.562;2023-04-15T12:16:23;1.40;;;0.50;;
3415;SDS011;1721;51.238;9.562;2023-04-15T12:18:52;1.30;;;0.40;;
3415;SDS011;1721;51.238;9.562;2023-04-15T12:21:23;2.17;;;0.60;;
3415;SDS011;1721;51.238;9.562;2023-04-15T12:23:51;1.40;;;0.40;;
3415;SDS011;1721;51.238;9.562;2023-04-15T12:26:24;1.40;;;0.40;;
3415;SDS011;1721;51.238;9.562;2023-04-15T12:29:29;1.38;;;0.40;;
3415;SDS011;1721;51.238;9.562;2023-04-15T12:32:05;1.60;;;0.50;;
3415;SDS011;1721;51.238;9.562;2023-04-15T12:34:32;1.33;;;0.40;;
3415;SDS011;1721;51.238;9.562;2023-04-15T12:37:00;1.70;;;0.70;;
3415;SDS011;1721;51.238;9.562;2023-04-15T12:39:27;1.30;;;0.40;;
3415;SDS011;1721;51.238;9.562;2023-04-15T12:41:59;1.40;;;0.47;;
3415;SDS011;1721;51.238;9.562;2023-04-15T12:44:25;1.40;;;0.50;;
3415;SDS011;1721;51.238;9.562;2023-04-15T12:46:51;1.40;;;0.40;;
3415;SDS011;1721;51.238;9.562;2023-04-15T12:49:17;2.37;;;0.50;;
3415;SDS011;1721;51.238;9.562;2023-04-15T12:51:45;1.60;;;0.73;;
3415;SDS011;1721;51.238;9.562;2023-04-15T12:54:15;1.40;;;0.40;;
3415;SDS011;1721;51.238;9.562;2023-04-15T12:56:41;1.35;;;0.40;;
3415;SDS011;1721;51.238;9.562;2023-04-15T12:59:08;1.65;;;0.70;;
3415;SDS011;1721;51.238;9.562;2023-04-15T13:01:33;1.37;;;0.40;;
3415;SDS011;1721;51.238;9.562;2023-04-15T13:03:59;2.03;;;0.73;;
3415;SDS011;1721;51.238;9.562;2023-04-15T13:06:25;1.50;;;0.50;;
3415;SDS011;1721;51.238;9.562;2023-04-15T13:08:50;1.60;;;0.63;;
3415;SDS011;1721;51.238;9.562;2023-04-15T13:11:19;1.38;;;0.40;;
3415;SDS011;1721;51.238;9.562;2023-04-15T13:13:45;1.40;;;0.40;;
3415;SDS011;1721;51.238;9.562;2023-04-15T13:16:11;1.40;;;0.40;;
3415;SDS011;1721;51.238;9.562;2023-04-15T13:18:36;6.33;;;0.90;;
3415;SDS011;1721;51.238;9.562;2023-04-15T13:21:02;1.30;;;0.40;;
3415;SDS011;1721;51.238;9.562;2023-04-15T13:23:27;1.40;;;0.50;;
3415;SDS011;1721;51.238;9.562;2023-04-15T13:25:53;1.40;;;0.40;;
3415;SDS011;1721;51.238;9.562;2023-04-15T13:28:19;1.30;;;0.40;;
3415;SDS011;1721;51.238;9.562;2023-04-15T13:30:44;1.40;;;0.40;;
3415;SDS011;1721;51.238;9.562;2023-04-15T13:33:10;1.40;;;0.40;;
3415;SDS011;1721;51.238;9.562;2023-04-15T13:35:36;1.33;;;0.40;;
3415;SDS011;1721;51.238;9.562;2023-04-15T13:38:02;1.40;;;0.40;;
3415;SDS011;1721;51.238;9.562;2023-04-15T13:40:27;1.60;;;0.60;;
3415;SDS011;1721;51.238;9.562;2023-04-15T13:42:53;3.30;;;0.73;;
3415;SDS011;1721;51.238;9.562;2023-04-15T13:45:19;1.37;;;0.40;;
3415;SDS011;1721;51.238;9.562;2023-04-15T13:47:44;1.37;;;0.40;;
3415;SDS011;1721;51.238;9.562;2023-04-15T13:50:10;1.40;;;0.40;;
3415;SDS011;1721;51.238;9.562;2023-04-15T13:52:36;1.40;;;0.40;;
3415;SDS011;1721;51.238;9.562;2023-04-15T13:55:02;1.40;;;0.50;;
3415;SDS011;1721;51.238;9.562;2023-04-15T13:57:28;1.42;;;0.55;;
3415;SDS011;1721;51.238;9.562;2023-04-15T13:59:53;1.50;;;0.53;;
3415;SDS011;1721;51.238;9.562;2023-04-15T14:02:20;2.13;;;0.67;;
3415;SDS011;1721;51.238;9.562;2023-04-15T14:04:47;3.78;;;0.68;;
3415;SDS011;1721;51.238;9.562;2023-04-15T14:07:12;1.30;;;0.40;;
3415;SDS011;1721;51.238;9.562;2023-04-15T14:09:38;1.33;;;0.40;;
3415;SDS011;1721;51.238;9.562;2023-04-15T14:12:03;1.40;;;0.40;;
3415;SDS011;1721;51.238;9.562;2023-04-15T14:14:29;1.80;;;0.63;;
3415;SDS011;1721;51.238;9.562;2023-04-15T14:16:55;1.40;;;0.50;;
3415;SDS011;1721;51.238;9.562;2023-04-15T14:19:21;1.60;;;0.60;;
3415;SDS011;1721;51.238;9.562;2023-04-15T14:21:48;2.50;;;0.70;;
3415;SDS011;1721;51.238;9.562;2023-04-15T14:24:13;1.40;;;0.60;;
3415;SDS011;1721;51.238;9.562;2023-04-15T14:26:39;1.40;;;0.50;;
3415;SDS011;1721;51.238;9.562;2023-04-15T14:29:04;1.80;;;0.70;;
3415;SDS011;1721;51.238;9.562;2023-04-15T14:31:30;1.40;;;0.40;;
3415;SDS011;1721;51.238;9.562;2023-04-15T14:33:55;1.40;;;0.50;;
3415;SDS011;1721;51.238;9.562;2023-04-15T14:36:21;1.40;;;0.50;;
3415;SDS011;1721;51.238;9.562;2023-04-15T14:38:46;1.40;;;0.40;;
3415;SDS011;1721;51.238;9.562;2023-04-15T14:41:12;1.70;;;0.60;;
3415;SDS011;1721;51.238;9.562;2023-04-15T14:43:38;1.40;;;0.40;;
3415;SDS011;1721;51.238;9.562;2023-04-15T14:46:03;3.70;;;0.73;;
3415;SDS011;1721;51.238;9.562;2023-04-15T14:48:29;1.43;;;0.50;;
3415;SDS011;1721;51.238;9.562;2023-04-15T14:50:55;1.40;;;0.50;;
3415;SDS011;1721;51.238;9.562;2023-04-15T14:53:22;1.60;;;0.60;;
3415;SDS011;1721;51.238;9.562;2023-04-15T14:55:47;1.63;;;0.70;;
3415;SDS011;1721;51.238;9.562;2023-04-15T14:58:13;1.57;;;0.60;;
3415;SDS011;1721;51.238;9.562;2023-04-15T15:00:38;2.47;;;0.67;;
3415;SDS011;1721;51.238;9.562;2023-04-15T15:03:06;2.05;;;0.70;;
3415;SDS011;1721;51.238;9.562;2023-04-15T15:05:39;1.40;;;0.40;;
3415;SDS011;1721;51.238;9.562;2023-04-15T15:08:06;2.55;;;0.75;;
3415;SDS011;1721;51.238;9.562;2023-04-15T15:10:33;2.25;;;0.85;;
3415;SDS011;1721;51.238;9.562;2023-04-15T15:13:00;1.33;;;0.40;;
3415;SDS011;1721;51.238;9.562;2023-04-15T15:15:30;1.60;;;0.75;;
3415;SDS011;1721;51.238;9.562;2023-04-15T15:17:56;2.40;;;0.93;;
3415;SDS011;1721;51.238;9.562;2023-04-15T15:20:22;1.90;;;1.17;;
3415;SDS011;1721;51.238;9.562;2023-04-15T15:22:48;1.50;;;0.50;;
3415;SDS011;1721;51.238;9.562;2023-04-15T15:25:13;1.40;;;0.40;;
3415;SDS011;1721;51.238;9.562;2023-04-15T15:27:39;1.50;;;0.53;;
3415;SDS011;1721;51.238;9.562;2023-04-15T15:30:04;1.93;;;1.13;;